KMFV/MFV METAR and TAF weather

Enter ICAO airport designator
Station Type Date Time Source
KMFV METAR 2020/04/02 02:15 UTC NOAA

KMFV 020215Z AUTO 18003KT 10SM CLR 05/04 A2984 RMK AO2 T00450038


Station Type Date Time Source
KMFV Decoded METAR 2020/04/02 02:15 UTC NOAA

Melfa / Accomack Airport, VA, United States (KMFV) 37-39N 075-46W
Apr 01, 2020 - 10:15 PM EDT / 2020.04.02 0215 UTC
Wind: from the S (180 degrees) at 3 MPH (3 KT):0
Visibility: 10 mile(s):0
Sky conditions: clear
Temperature: 40.1 F (4.5 C)
Dew Point: 38.8 F (3.8 C)
Relative Humidity: 95%
Pressure (altimeter): 29.84 in. Hg (1010 hPa)
ob: KMFV 020215Z AUTO 18003KT 10SM CLR 05/04 A2984 RMK AO2 T00450038
cycle: 2

Station Type Date Time Source
KMFV TAF UTC NOAA

Error!

Example: see airport list